sensor_id;sensor_type;location;lat;lon;timestamp;pressure;altitude;pressure_sealevel;temperature;humidity
15487;BME280;7845;53.698;10.078;2023-05-12T00:01:18;101459.44;;;17.87;100.00
15487;BME280;7845;53.698;10.078;2023-05-12T00:03:44;101455.59;;;18.00;100.00
15487;BME280;7845;53.698;10.078;2023-05-12T00:06:09;101455.63;;;18.30;100.00
15487;BME280;7845;53.698;10.078;2023-05-12T00:08:35;101453.13;;;17.93;100.00
15487;BME280;7845;53.698;10.078;2023-05-12T00:11:01;101449.28;;;18.04;100.00
15487;BME280;7845;53.698;10.078;2023-05-12T00:13:26;101454.63;;;18.03;100.00
15487;BME280;7845;53.698;10.078;2023-05-12T00:15:53;101450.72;;;18.16;100.00
15487;BME280;7845;53.698;10.078;2023-05-12T00:18:21;101444.44;;;18.20;100.00
15487;BME280;7845;53.698;10.078;2023-05-12T00:20:47;101455.75;;;17.94;100.00
15487;BME280;7845;53.698;10.078;2023-05-12T00:23:14;101447.91;;;17.91;100.00
15487;BME280;7845;53.698;10.078;2023-05-12T00:25:39;101453.97;;;17.95;100.00
15487;BME280;7845;53.698;10.078;2023-05-12T00:28:04;101454.88;;;17.94;100.00
15487;BME280;7845;53.698;10.078;2023-05-12T00:30:33;101461.06;;;17.93;100.00
15487;BME280;7845;53.698;10.078;2023-05-12T00:32:58;101462.00;;;17.92;100.00
15487;BME280;7845;53.698;10.078;2023-05-12T00:35:24;101458.41;;;17.94;100.00
15487;BME280;7845;53.698;10.078;2023-05-12T00:37:53;101461.06;;;17.93;100.00
15487;BME280;7845;53.698;10.078;2023-05-12T00:40:26;101449.53;;;17.95;100.00
15487;BME280;7845;53.698;10.078;2023-05-12T00:42:54;101457.22;;;18.04;100.00
15487;BME280;7845;53.698;10.078;2023-05-12T00:45:19;101459.81;;;18.06;100.00
15487;BME280;7845;53.698;10.078;2023-05-12T00:47:45;101455.19;;;18.14;100.00
15487;BME280;7845;53.698;10.078;2023-05-12T00:50:13;101460.97;;;17.96;100.00
15487;BME280;7845;53.698;10.078;2023-05-12T00:52:40;101464.16;;;18.08;100.00
15487;BME280;7845;53.698;10.078;2023-05-12T00:55:06;101461.94;;;17.93;100.00
15487;BME280;7845;53.698;10.078;2023-05-12T00:57:32;101475.38;;;17.84;100.00
15487;BME280;7845;53.698;10.078;2023-05-12T00:59:57;101472.78;;;17.83;100.00
15487;BME280;7845;53.698;10.078;2023-05-12T01:02:23;101471.69;;;17.91;100.00
15487;BME280;7845;53.698;10.078;2023-05-12T01:04:51;101474.31;;;17.91;100.00
15487;BME280;7845;53.698;10.078;2023-05-12T01:07:19;101477.50;;;18.04;100.00
15487;BME280;7845;53.698;10.078;2023-05-12T01:09:45;101469.84;;;17.95;100.00
15487;BME280;7845;53.698;10.078;2023-05-12T01:12:12;101480.09;;;18.05;100.00
15487;BME280;7845;53.698;10.078;2023-05-12T01:14:38;101474.00;;;18.03;100.00
15487;BME280;7845;53.698;10.078;2023-05-12T01:17:10;101469.66;;;18.01;100.00
15487;BME280;7845;53.698;10.078;2023-05-12T01:22:06;101470.88;;;18.20;100.00
15487;BME280;7845;53.698;10.078;2023-05-12T01:24:35;101462.78;;;18.26;100.00
15487;BME280;7845;53.698;10.078;2023-05-12T01:27:03;101472.63;;;18.21;100.00
15487;BME280;7845;53.698;10.078;2023-05-12T01:29:31;101477.81;;;18.24;100.00
15487;BME280;7845;53.698;10.078;2023-05-12T01:31:56;101484.25;;;18.14;100.00
15487;BME280;7845;53.698;10.078;2023-05-12T01:34:24;101488.81;;;18.09;100.00
15487;BME280;7845;53.698;10.078;2023-05-12T01:36:49;101488.59;;;18.16;100.00
15487;BME280;7845;53.698;10.078;2023-05-12T01:39:15;101485.44;;;18.04;100.00
15487;BME280;7845;53.698;10.078;2023-05-12T01:41:40;101491.03;;;17.92;100.00
15487;BME280;7845;53.698;10.078;2023-05-12T01:44:06;101499.16;;;17.84;100.00
15487;BME280;7845;53.698;10.078;2023-05-12T01:46:33;101505.22;;;17.88;100.00
15487;BME280;7845;53.698;10.078;2023-05-12T01:48:58;101502.00;;;17.77;100.00
15487;BME280;7845;53.698;10.078;2023-05-12T01:51:23;101500.19;;;17.77;100.00
15487;BME280;7845;53.698;10.078;2023-05-12T01:53:49;101493.31;;;18.05;100.00
15487;BME280;7845;53.698;10.078;2023-05-12T01:56:15;101498.44;;;18.10;100.00
15487;BME280;7845;53.698;10.078;2023-05-12T01:58:41;101497.78;;;18.03;100.00
15487;BME280;7845;53.698;10.078;2023-05-12T02:01:07;101499.47;;;18.06;100.00
15487;BME280;7845;53.698;10.078;2023-05-12T02:03:32;101504.59;;;18.10;100.00
15487;BME280;7845;53.698;10.078;2023-05-12T02:05:59;101514.59;;;18.01;100.00
15487;BME280;7845;53.698;10.078;2023-05-12T02:08:26;101517.16;;;18.02;100.00
15487;BME280;7845;53.698;10.078;2023-05-12T02:11:03;101511.22;;;17.94;100.00
15487;BME280;7845;53.698;10.078;2023-05-12T02:13:29;101515.63;;;17.94;100.00
15487;BME280;7845;53.698;10.078;2023-05-12T02:15:57;101511.47;;;18.17;100.00
15487;BME280;7845;53.698;10.078;2023-05-12T02:18:22;101508.19;;;18.09;100.00
15487;BME280;7845;53.698;10.078;2023-05-12T02:20:48;101512.97;;;18.28;100.00
15487;BME280;7845;53.698;10.078;2023-05-12T02:23:14;101508.66;;;18.23;100.00
15487;BME280;7845;53.698;10.078;2023-05-12T02:25:41;101514.03;;;18.20;100.00
15487;BME280;7845;53.698;10.078;2023-05-12T02:28:06;101509.78;;;18.15;100.00
15487;BME280;7845;53.698;10.078;2023-05-12T02:30:36;101515.06;;;18.15;100.00
15487;BME280;7845;53.698;10.078;2023-05-12T02:33:03;101512.66;;;18.06;100.00
15487;BME280;7845;53.698;10.078;2023-05-12T02:35:32;101522.91;;;18.18;100.00
15487;BME280;7845;53.698;10.078;2023-05-12T02:37:57;101517.50;;;18.22;100.00
15487;BME280;7845;53.698;10.078;2023-05-12T02:40:24;101514.75;;;18.25;100.00
15487;BME280;7845;53.698;10.078;2023-05-12T02:42:49;101517.41;;;18.25;100.00
15487;BME280;7845;53.698;10.078;2023-05-12T02:45:16;101518.44;;;18.20;100.00
15487;BME280;7845;53.698;10.078;2023-05-12T02:47:45;101516.03;;;18.12;100.00
15487;BME280;7845;53.698;10.078;2023-05-12T02:50:11;101512.44;;;18.15;100.00
15487;BME280;7845;53.698;10.078;2023-05-12T02:52:36;101506.22;;;18.16;100.00
15487;BME280;7845;53.698;10.078;2023-05-12T02:55:01;101522.22;;;18.10;100.00
15487;BME280;7845;53.698;10.078;2023-05-12T02:57:27;101522.69;;;17.93;100.00
15487;BME280;7845;53.698;10.078;2023-05-12T02:59:59;101527.81;;;17.99;100.00
15487;BME280;7845;53.698;10.078;2023-05-12T03:02:25;101524.13;;;18.05;100.00
15487;BME280;7845;53.698;10.078;2023-05-12T03:04:52;101522.16;;;18.13;100.00
15487;BME280;7845;53.698;10.078;2023-05-12T03:07:17;101524.78;;;18.14;100.00
15487;BME280;7845;53.698;10.078;2023-05-12T03:09:43;101525.09;;;18.02;100.00
15487;BME280;7845;53.698;10.078;2023-05-12T03:12:11;101525.56;;;18.18;100.00
15487;BME280;7845;53.698;10.078;2023-05-12T03:14:36;101523.56;;;18.26;100.00
15487;BME280;7845;53.698;10.078;2023-05-12T03:17:03;101527.47;;;17.79;100.00
15487;BME280;7845;53.698;10.078;2023-05-12T03:19:28;101530.19;;;17.76;100.00
15487;BME280;7845;53.698;10.078;2023-05-12T03:21:54;101535.22;;;17.85;100.00
15487;BME280;7845;53.698;10.078;2023-05-12T03:24:20;101527.16;;;17.91;100.00
15487;BME280;7845;53.698;10.078;2023-05-12T03:26:46;101535.28;;;18.16;100.00
15487;BME280;7845;53.698;10.078;2023-05-12T03:29:12;101538.97;;;18.10;100.00
15487;BME280;7845;53.698;10.078;2023-05-12T03:31:38;101528.78;;;17.95;100.00
15487;BME280;7845;53.698;10.078;2023-05-12T03:34:03;101526.53;;;18.14;100.00
15487;BME280;7845;53.698;10.078;2023-05-12T03:36:28;101535.72;;;18.01;100.00
15487;BME280;7845;53.698;10.078;2023-05-12T03:38:54;101540.28;;;17.94;100.00
15487;BME280;7845;53.698;10.078;2023-05-12T03:41:19;101537.28;;;18.08;100.00
15487;BME280;7845;53.698;10.078;2023-05-12T03:43:49;101540.78;;;18.08;100.00
15487;BME280;7845;53.698;10.078;2023-05-12T03:46:17;101533.50;;;18.16;100.00
15487;BME280;7845;53.698;10.078;2023-05-12T03:48:43;101534.94;;;18.28;100.00
15487;BME280;7845;53.698;10.078;2023-05-12T03:51:08;101533.09;;;18.32;100.00
15487;BME280;7845;53.698;10.078;2023-05-12T03:53:34;101537.59;;;18.28;100.00
15487;BME280;7845;53.698;10.078;2023-05-12T03:56:05;101534.69;;;18.39;100.00
15487;BME280;7845;53.698;10.078;2023-05-12T03:58:32;101540.94;;;18.35;100.00
15487;BME280;7845;53.698;10.078;2023-05-12T04:00:57;101547.91;;;18.37;100.00
15487;BME280;7845;53.698;10.078;2023-05-12T04:03:23;101547.84;;;18.40;100.00
15487;BME280;7845;53.698;10.078;2023-05-12T04:05:49;101544.38;;;18.38;100.00
15487;BME280;7845;53.698;10.078;2023-05-12T04:08:15;101549.41;;;18.47;100.00
15487;BME280;7845;53.698;10.078;2023-05-12T04:10:43;101544.44;;;18.37;100.00
15487;BME280;7845;53.698;10.078;2023-05-12T04:13:09;101542.69;;;18.68;100.00
15487;BME280;7845;53.698;10.078;2023-05-12T04:15:34;101547.69;;;18.78;100.00
15487;BME280;7845;53.698;10.078;2023-05-12T04:18:01;101544.94;;;18.82;100.00
15487;BME280;7845;53.698;10.078;2023-05-12T04:20:27;101549.38;;;18.79;100.00
15487;BME280;7845;53.698;10.078;2023-05-12T04:22:52;101559.34;;;18.71;100.00
15487;BME280;7845;53.698;10.078;2023-05-12T04:25:21;101565.41;;;18.75;100.00
15487;BME280;7845;53.698;10.078;2023-05-12T04:27:46;101567.28;;;18.71;100.00
15487;BME280;7845;53.698;10.078;2023-05-12T04:30:12;101565.88;;;18.89;100.00
15487;BME280;7845;53.698;10.078;2023-05-12T04:32:38;101574.25;;;18.74;100.00
15487;BME280;7845;53.698;10.078;2023-05-12T04:35:03;101570.63;;;18.76;100.00
15487;BME280;7845;53.698;10.078;2023-05-12T04:37:29;101573.19;;;18.81;100.00
15487;BME280;7845;53.698;10.078;2023-05-12T04:39:56;101572.84;;;18.92;100.00
15487;BME280;7845;53.698;10.078;2023-05-12T04:42:22;101574.78;;;18.87;100.00
15487;BME280;7845;53.698;10.078;2023-05-12T04:44:47;101577.25;;;18.93;100.00
15487;BME280;7845;53.698;10.078;2023-05-12T04:47:13;101582.56;;;18.91;100.00
15487;BME280;7845;53.698;10.078;2023-05-12T04:49:39;101576.38;;;18.91;100.00
15487;BME280;7845;53.698;10.078;2023-05-12T04:52:05;101581.13;;;19.10;100.00
15487;BME280;7845;53.698;10.078;2023-05-12T04:54:30;101581.22;;;19.07;100.00
15487;BME280;7845;53.698;10.078;2023-05-12T04:57:04;101585.63;;;19.07;100.00
15487;BME280;7845;53.698;10.078;2023-05-12T04:59:29;101586.81;;;19.26;100.00
15487;BME280;7845;53.698;10.078;2023-05-12T05:01:56;101600.53;;;19.39;100.00
15487;BME280;7845;53.698;10.078;2023-05-12T05:04:22;101587.00;;;19.20;100.00
15487;BME280;7845;53.698;10.078;2023-05-12T05:06:47;101594.34;;;19.41;100.00
15487;BME280;7845;53.698;10.078;2023-05-12T05:09:14;101599.38;;;19.49;100.00
15487;BME280;7845;53.698;10.078;2023-05-12T05:11:39;101604.19;;;19.64;100.00
15487;BME280;7845;53.698;10.078;2023-05-12T05:14:05;101596.44;;;19.58;100.00
15487;BME280;7845;53.698;10.078;2023-05-12T05:16:30;101612.22;;;19.61;100.00
15487;BME280;7845;53.698;10.078;2023-05-12T05:18:56;101602.03;;;19.76;100.00
15487;BME280;7845;53.698;10.078;2023-05-12T05:21:23;101613.31;;;19.81;100.00
15487;BME280;7845;53.698;10.078;2023-05-12T05:23:49;101613.44;;;20.05;100.00
15487;BME280;7845;53.698;10.078;2023-05-12T05:26:15;101608.81;;;20.11;100.00
15487;BME280;7845;53.698;10.078;2023-05-12T05:28:41;101606.75;;;20.19;100.00
15487;BME280;7845;53.698;10.078;2023-05-12T05:31:07;101609.41;;;19.93;100.00
15487;BME280;7845;53.698;10.078;2023-05-12T05:33:34;101621.75;;;20.20;100.00
15487;BME280;7845;53.698;10.078;2023-05-12T05:35:59;101620.72;;;20.24;100.00
15487;BME280;7845;53.698;10.078;2023-05-12T05:38:24;101622.72;;;20.44;100.00
15487;BME280;7845;53.698;10.078;2023-05-12T05:40:50;101627.06;;;20.71;100.00
15487;BME280;7845;53.698;10.078;2023-05-12T05:43:16;101632.19;;;20.76;100.00
15487;BME280;7845;53.698;10.078;2023-05-12T05:45:43;101625.25;;;20.96;100.00
15487;BME280;7845;53.698;10.078;2023-05-12T05:48:08;101631.28;;;21.00;100.00
15487;BME280;7845;53.698;10.078;2023-05-12T05:50:33;101628.28;;;21.11;100.00
15487;BME280;7845;53.698;10.078;2023-05-12T05:53:00;101633.94;;;21.00;100.00
15487;BME280;7845;53.698;10.078;2023-05-12T05:55:27;101633.25;;;20.95;100.00
15487;BME280;7845;53.698;10.078;2023-05-12T05:57:52;101641.69;;;21.06;100.00
15487;BME280;7845;53.698;10.078;2023-05-12T06:00:20;101636.44;;;21.05;100.00
15487;BME280;7845;53.698;10.078;2023-05-12T06:02:45;101645.00;;;21.13;100.00
15487;BME280;7845;53.698;10.078;2023-05-12T06:05:12;101644.16;;;21.35;100.00
15487;BME280;7845;53.698;10.078;2023-05-12T06:07:37;101645.44;;;21.70;100.00
15487;BME280;7845;53.698;10.078;2023-05-12T06:10:03;101637.47;;;21.70;100.00
15487;BME280;7845;53.698;10.078;2023-05-12T06:12:29;101631.09;;;21.74;100.00
15487;BME280;7845;53.698;10.078;2023-05-12T06:14:55;101637.72;;;22.08;100.00
15487;BME280;7845;53.698;10.078;2023-05-12T06:17:20;101643.22;;;22.25;100.00
15487;BME280;7845;53.698;10.078;2023-05-12T06:19:46;101646.84;;;22.22;100.00
15487;BME280;7845;53.698;10.078;2023-05-12T06:22:16;101651.34;;;22.42;100.00
15487;BME280;7845;53.698;10.078;2023-05-12T06:24:42;101644.75;;;22.30;100.00
15487;BME280;7845;53.698;10.078;2023-05-12T06:27:09;101636.16;;;22.44;100.00
15487;BME280;7845;53.698;10.078;2023-05-12T06:29:34;101641.47;;;22.24;100.00
15487;BME280;7845;53.698;10.078;2023-05-12T06:32:02;101634.47;;;22.43;97.48
15487;BME280;7845;53.698;10.078;2023-05-12T06:34:27;101644.53;;;22.15;97.35
15487;BME280;7845;53.698;10.078;2023-05-12T06:36:53;101654.53;;;22.30;100.00
15487;BME280;7845;53.698;10.078;2023-05-12T06:39:19;101647.56;;;22.05;98.36
15487;BME280;7845;53.698;10.078;2023-05-12T06:41:44;101650.09;;;22.09;97.53
15487;BME280;7845;53.698;10.078;2023-05-12T06:44:09;101653.91;;;22.43;98.58
15487;BME280;7845;53.698;10.078;2023-05-12T06:46:37;101651.69;;;22.54;95.40
15487;BME280;7845;53.698;10.078;2023-05-12T06:49:03;101659.84;;;22.72;96.08
15487;BME280;7845;53.698;10.078;2023-05-12T06:51:29;101650.06;;;22.91;93.05
15487;BME280;7845;53.698;10.078;2023-05-12T06:53:54;101661.97;;;22.42;93.52
15487;BME280;7845;53.698;10.078;2023-05-12T06:56:20;101656.81;;;22.99;95.54
15487;BME280;7845;53.698;10.078;2023-05-12T06:58:47;101648.16;;;22.94;92.43
15487;BME280;7845;53.698;10.078;2023-05-12T07:01:13;101651.53;;;22.98;90.44
15487;BME280;7845;53.698;10.078;2023-05-12T07:03:39;101654.84;;;22.84;88.88
15487;BME280;7845;53.698;10.078;2023-05-12T07:06:04;101659.66;;;23.34;91.65
15487;BME280;7845;53.698;10.078;2023-05-12T07:08:29;101660.81;;;23.28;89.33
15487;BME280;7845;53.698;10.078;2023-05-12T07:10:55;101646.44;;;23.12;84.56
15487;BME280;7845;53.698;10.078;2023-05-12T07:13:20;101643.09;;;22.48;82.75
15487;BME280;7845;53.698;10.078;2023-05-12T07:15:46;101652.06;;;23.06;84.27
15487;BME280;7845;53.698;10.078;2023-05-12T07:18:11;101656.22;;;22.93;83.37
15487;BME280;7845;53.698;10.078;2023-05-12T07:20:39;101644.19;;;23.23;82.83
15487;BME280;7845;53.698;10.078;2023-05-12T07:23:06;101652.47;;;23.73;82.20
15487;BME280;7845;53.698;10.078;2023-05-12T07:25:34;101645.94;;;24.16;80.20
15487;BME280;7845;53.698;10.078;2023-05-12T07:27:59;101641.31;;;24.54;77.83
15487;BME280;7845;53.698;10.078;2023-05-12T07:30:25;101645.69;;;24.20;76.52
15487;BME280;7845;53.698;10.078;2023-05-12T07:32:50;101651.53;;;24.46;79.00
15487;BME280;7845;53.698;10.078;2023-05-12T07:35:16;101642.72;;;24.27;75.71
15487;BME280;7845;53.698;10.078;2023-05-12T07:37:41;101651.19;;;24.35;76.04
15487;BME280;7845;53.698;10.078;2023-05-12T07:40:07;101635.25;;;24.33;75.38
15487;BME280;7845;53.698;10.078;2023-05-12T07:42:33;101649.78;;;24.45;76.93
15487;BME280;7845;53.698;10.078;2023-05-12T07:45:03;101644.25;;;24.13;73.33
15487;BME280;7845;53.698;10.078;2023-05-12T07:47:29;101650.72;;;23.72;73.71
15487;BME280;7845;53.698;10.078;2023-05-12T07:49:57;101649.22;;;24.55;75.09
15487;BME280;7845;53.698;10.078;2023-05-12T07:52:23;101661.56;;;24.75;75.93
15487;BME280;7845;53.698;10.078;2023-05-12T07:54:50;101649.94;;;24.42;74.22
15487;BME280;7845;53.698;10.078;2023-05-12T07:57:18;101656.31;;;24.22;74.10
15487;BME280;7845;53.698;10.078;2023-05-12T07:59:44;101649.31;;;24.54;76.66
15487;BME280;7845;53.698;10.078;2023-05-12T08:02:11;101651.38;;;24.49;74.74
15487;BME280;7845;53.698;10.078;2023-05-12T08:04:37;101660.97;;;24.17;76.49
15487;BME280;7845;53.698;10.078;2023-05-12T08:07:03;101668.16;;;24.51;77.55
15487;BME280;7845;53.698;10.078;2023-05-12T08:09:28;101662.41;;;24.24;76.03
15487;BME280;7845;53.698;10.078;2023-05-12T08:11:57;101668.69;;;24.23;76.65
15487;BME280;7845;53.698;10.078;2023-05-12T08:14:24;101667.91;;;24.38;77.86
15487;BME280;7845;53.698;10.078;2023-05-12T08:16:50;101674.97;;;23.86;77.05
15487;BME280;7845;53.698;10.078;2023-05-12T08:19:18;101682.81;;;23.89;80.48
15487;BME280;7845;53.698;10.078;2023-05-12T08:21:43;101676.47;;;23.73;77.98
15487;BME280;7845;53.698;10.078;2023-05-12T08:24:09;101679.56;;;23.83;80.11
15487;BME280;7845;53.698;10.078;2023-05-12T08:26:34;101684.22;;;23.78;81.53
15487;BME280;7845;53.698;10.078;2023-05-12T08:29:00;101688.78;;;23.18;83.00
15487;BME280;7845;53.698;10.078;2023-05-12T08:31:27;101688.09;;;22.94;83.29
15487;BME280;7845;53.698;10.078;2023-05-12T08:33:52;101684.84;;;23.08;82.49
15487;BME280;7845;53.698;10.078;2023-05-12T08:36:18;101680.38;;;23.08;81.32
15487;BME280;7845;53.698;10.078;2023-05-12T08:38:43;101688.38;;;23.27;83.66
15487;BME280;7845;53.698;10.078;2023-05-12T08:41:28;101669.91;;;23.04;78.91
15487;BME280;7845;53.698;10.078;2023-05-12T08:43:58;101674.09;;;23.09;80.38
15487;BME280;7845;53.698;10.078;2023-05-12T08:46:24;101670.91;;;23.01;76.99
15487;BME280;7845;53.698;10.078;2023-05-12T08:48:50;101662.31;;;23.34;76.15
15487;BME280;7845;53.698;10.078;2023-05-12T08:51:18;101660.41;;;23.56;76.78
15487;BME280;7845;53.698;10.078;2023-05-12T08:53:46;101654.53;;;23.10;74.26
15487;BME280;7845;53.698;10.078;2023-05-12T08:56:13;101657.91;;;23.53;74.64
15487;BME280;7845;53.698;10.078;2023-05-12T08:58:41;101666.25;;;23.45;73.88
15487;BME280;7845;53.698;10.078;2023-05-12T09:01:10;101660.75;;;23.86;74.18
15487;BME280;7845;53.698;10.078;2023-05-12T09:03:35;101655.63;;;23.81;69.30
15487;BME280;7845;53.698;10.078;2023-05-12T09:06:01;101648.06;;;23.72;69.07
15487;BME280;7845;53.698;10.078;2023-05-12T09:08:29;101656.59;;;23.80;69.59
15487;BME280;7845;53.698;10.078;2023-05-12T09:10:58;101644.91;;;23.45;66.29
15487;BME280;7845;53.698;10.078;2023-05-12T09:13:27;101648.59;;;23.80;66.89
15487;BME280;7845;53.698;10.078;2023-05-12T09:15:53;101649.34;;;24.01;68.94
15487;BME280;7845;53.698;10.078;2023-05-12T09:18:21;101643.84;;;23.49;65.93
15487;BME280;7845;53.698;10.078;2023-05-12T09:20:46;101644.97;;;23.81;63.90
15487;BME280;7845;53.698;10.078;2023-05-12T09:23:13;101661.25;;;23.75;65.46
15487;BME280;7845;53.698;10.078;2023-05-12T09:25:39;101644.22;;;23.96;63.75
15487;BME280;7845;53.698;10.078;2023-05-12T09:28:04;101647.19;;;23.90;65.59
15487;BME280;7845;53.698;10.078;2023-05-12T09:30:30;101651.88;;;23.85;66.12
15487;BME280;7845;53.698;10.078;2023-05-12T09:33:12;101644.34;;;23.93;65.89
15487;BME280;7845;53.698;10.078;2023-05-12T09:35:39;101646.53;;;23.85;64.35
15487;BME280;7845;53.698;10.078;2023-05-12T09:38:10;101634.50;;;23.95;61.25
15487;BME280;7845;53.698;10.078;2023-05-12T09:40:36;101643.28;;;24.16;62.41
15487;BME280;7845;53.698;10.078;2023-05-12T09:43:05;101650.31;;;24.17;64.50
15487;BME280;7845;53.698;10.078;2023-05-12T09:45:35;101635.91;;;24.02;63.63
15487;BME280;7845;53.698;10.078;2023-05-12T09:48:10;101637.78;;;24.36;63.89
15487;BME280;7845;53.698;10.078;2023-05-12T09:50:47;101638.63;;;24.19;63.97
15487;BME280;7845;53.698;10.078;2023-05-12T09:53:15;101620.41;;;24.62;60.64
15487;BME280;7845;53.698;10.078;2023-05-12T09:55:44;101637.78;;;25.03;63.12
15487;BME280;7845;53.698;10.078;2023-05-12T09:58:10;101640.28;;;25.06;63.06
15487;BME280;7845;53.698;10.078;2023-05-12T10:00:40;101632.69;;;24.99;61.56
15487;BME280;7845;53.698;10.078;2023-05-12T10:03:13;101635.59;;;24.94;60.55
15487;BME280;7845;53.698;10.078;2023-05-12T10:05:49;101633.34;;;25.19;61.00
15487;BME280;7845;53.698;10.078;2023-05-12T10:08:20;101633.00;;;25.25;61.42
15487;BME280;7845;53.698;10.078;2023-05-12T10:10:47;101633.88;;;24.76;60.18
15487;BME280;7845;53.698;10.078;2023-05-12T10:13:17;101654.16;;;24.97;61.42
15487;BME280;7845;53.698;10.078;2023-05-12T10:15:47;101640.13;;;24.59;61.85
15487;BME280;7845;53.698;10.078;2023-05-12T10:18:14;101639.06;;;24.79;61.03
15487;BME280;7845;53.698;10.078;2023-05-12T10:20:42;101646.94;;;24.99;63.02
15487;BME280;7845;53.698;10.078;2023-05-12T10:23:09;101638.88;;;25.32;62.29
15487;BME280;7845;53.698;10.078;2023-05-12T10:25:40;101633.53;;;25.32;61.91
15487;BME280;7845;53.698;10.078;2023-05-12T10:28:09;101645.56;;;25.08;62.26
15487;BME280;7845;53.698;10.078;2023-05-12T10:30:40;101634.84;;;25.41;59.77
15487;BME280;7845;53.698;10.078;2023-05-12T10:33:06;101633.84;;;25.10;58.46
15487;BME280;7845;53.698;10.078;2023-05-12T10:35:43;101636.16;;;25.49;60.63
15487;BME280;7845;53.698;10.078;2023-05-12T10:38:13;101639.13;;;25.27;60.10
15487;BME280;7845;53.698;10.078;2023-05-12T10:41:00;101634.94;;;25.06;58.22
15487;BME280;7845;53.698;10.078;2023-05-12T10:43:27;101620.59;;;25.24;55.55
15487;BME280;7845;53.698;10.078;2023-05-12T10:48:35;101610.31;;;25.17;51.20
15487;BME280;7845;53.698;10.078;2023-05-12T10:51:08;101596.47;;;25.26;49.18
15487;BME280;7845;53.698;10.078;2023-05-12T10:53:34;101618.59;;;25.12;52.85
15487;BME280;7845;53.698;10.078;2023-05-12T10:56:03;101634.19;;;25.53;56.97
15487;BME280;7845;53.698;10.078;2023-05-12T10:58:29;101619.78;;;25.07;54.06
15487;BME280;7845;53.698;10.078;2023-05-12T11:01:03;101611.88;;;25.05;50.75
15487;BME280;7845;53.698;10.078;2023-05-12T11:03:29;101622.97;;;25.62;52.24
15487;BME280;7845;53.698;10.078;2023-05-12T11:06:03;101616.06;;;25.58;49.65
15487;BME280;7845;53.698;10.078;2023-05-12T11:08:29;101617.47;;;25.48;49.18
15487;BME280;7845;53.698;10.078;2023-05-12T11:10:59;101619.88;;;25.21;49.71
15487;BME280;7845;53.698;10.078;2023-05-12T11:13:27;101621.72;;;25.36;50.42
15487;BME280;7845;53.698;10.078;2023-05-12T11:15:55;101616.13;;;25.41;49.14
15487;BME280;7845;53.698;10.078;2023-05-12T11:18:22;101616.41;;;25.83;49.56
15487;BME280;7845;53.698;10.078;2023-05-12T11:20:49;101606.97;;;25.92;48.44
15487;BME280;7845;53.698;10.078;2023-05-12T11:23:27;101610.44;;;25.78;47.47
15487;BME280;7845;53.698;10.078;2023-05-12T11:25:54;101595.25;;;25.63;44.00
15487;BME280;7845;53.698;10.078;2023-05-12T11:28:19;101608.03;;;25.58;45.90
15487;BME280;7845;53.698;10.078;2023-05-12T11:30:51;101607.50;;;25.82;46.21
15487;BME280;7845;53.698;10.078;2023-05-12T11:33:19;101608.19;;;25.86;45.45
15487;BME280;7845;53.698;10.078;2023-05-12T11:35:46;101626.00;;;26.17;47.85
15487;BME280;7845;53.698;10.078;2023-05-12T11:38:16;101628.75;;;26.31;49.69
15487;BME280;7845;53.698;10.078;2023-05-12T11:40:48;101620.88;;;25.51;46.61
15487;BME280;7845;53.698;10.078;2023-05-12T11:43:19;101619.19;;;25.96;46.15
15487;BME280;7845;53.698;10.078;2023-05-12T11:45:46;101623.63;;;25.97;46.61
15487;BME280;7845;53.698;10.078;2023-05-12T11:48:12;101635.16;;;26.13;45.48
15487;BME280;7845;53.698;10.078;2023-05-12T11:50:42;101620.50;;;26.04;44.60
15487;BME280;7845;53.698;10.078;2023-05-12T11:53:10;101606.47;;;25.69;41.26
15487;BME280;7845;53.698;10.078;2023-05-12T11:55:47;101623.34;;;26.17;43.11
15487;BME280;7845;53.698;10.078;2023-05-12T11:58:18;101618.91;;;25.86;40.99
15487;BME280;7845;53.698;10.078;2023-05-12T12:00:47;101624.13;;;26.03;40.68
15487;BME280;7845;53.698;10.078;2023-05-12T12:03:14;101608.06;;;26.19;39.69
15487;BME280;7845;53.698;10.078;2023-05-12T12:05:42;101614.69;;;26.27;41.45
15487;BME280;7845;53.698;10.078;2023-05-12T12:08:11;101606.50;;;26.15;39.98
15487;BME280;7845;53.698;10.078;2023-05-12T12:10:38;101611.84;;;26.45;40.24
15487;BME280;7845;53.698;10.078;2023-05-12T12:13:04;101606.25;;;26.63;40.39
15487;BME280;7845;53.698;10.078;2023-05-12T12:15:30;101599.06;;;25.59;37.92
15487;BME280;7845;53.698;10.078;2023-05-12T12:17:56;101599.16;;;26.03;38.15
15487;BME280;7845;53.698;10.078;2023-05-12T12:20:22;101611.97;;;26.71;40.63
15487;BME280;7845;53.698;10.078;2023-05-12T12:22:49;101620.78;;;26.29;40.52
15487;BME280;7845;53.698;10.078;2023-05-12T12:25:14;101607.25;;;26.47;39.04
15487;BME280;7845;53.698;10.078;2023-05-12T12:27:39;101609.66;;;26.51;39.21
15487;BME280;7845;53.698;10.078;2023-05-12T12:30:05;101619.56;;;26.35;39.37
15487;BME280;7845;53.698;10.078;2023-05-12T12:32:31;101604.47;;;26.34;37.49
15487;BME280;7845;53.698;10.078;2023-05-12T12:34:58;101608.81;;;26.65;38.55
15487;BME280;7845;53.698;10.078;2023-05-12T12:37:25;101624.53;;;26.27;41.16
15487;BME280;7845;53.698;10.078;2023-05-12T12:39:52;101628.63;;;26.76;42.85
15487;BME280;7845;53.698;10.078;2023-05-12T12:42:17;101620.28;;;26.97;41.96
15487;BME280;7845;53.698;10.078;2023-05-12T12:44:42;101597.19;;;26.80;38.97
15487;BME280;7845;53.698;10.078;2023-05-12T12:47:10;101607.13;;;26.78;39.86
15487;BME280;7845;53.698;10.078;2023-05-12T12:49:36;101612.44;;;26.20;40.47